sensor_id;sensor_type;location;lat;lon;timestamp;temperature;humidity
11242;DHT22;5678;52.370;9.006;2023-05-29T00:01:12;11.00;99.90
11242;DHT22;5678;52.370;9.006;2023-05-29T00:03:45;10.90;99.90
11242;DHT22;5678;52.370;9.006;2023-05-29T00:06:13;10.90;99.90
11242;DHT22;5678;52.370;9.006;2023-05-29T00:08:41;10.90;99.90
11242;DHT22;5678;52.370;9.006;2023-05-29T00:11:10;10.80;99.90
11242;DHT22;5678;52.370;9.006;2023-05-29T00:13:38;10.80;99.90
11242;DHT22;5678;52.370;9.006;2023-05-29T00:16:07;10.70;99.90
11242;DHT22;5678;52.370;9.006;2023-05-29T00:18:36;10.70;99.90
11242;DHT22;5678;52.370;9.006;2023-05-29T00:21:12;10.60;99.90
11242;DHT22;5678;52.370;9.006;2023-05-29T00:23:40;10.60;99.90
11242;DHT22;5678;52.370;9.006;2023-05-29T00:26:12;10.50;99.90
11242;DHT22;5678;52.370;9.006;2023-05-29T00:28:43;10.50;99.90
11242;DHT22;5678;52.370;9.006;2023-05-29T00:31:11;10.50;99.90
11242;DHT22;5678;52.370;9.006;2023-05-29T00:33:39;10.40;99.90
11242;DHT22;5678;52.370;9.006;2023-05-29T00:36:08;10.40;99.90
11242;DHT22;5678;52.370;9.006;2023-05-29T00:38:36;10.30;99.90
11242;DHT22;5678;52.370;9.006;2023-05-29T00:41:04;10.30;99.90
11242;DHT22;5678;52.370;9.006;2023-05-29T00:43:33;10.20;99.90
11242;DHT22;5678;52.370;9.006;2023-05-29T00:46:01;10.20;99.90
11242;DHT22;5678;52.370;9.006;2023-05-29T00:48:29;10.20;99.90
11242;DHT22;5678;52.370;9.006;2023-05-29T00:50:57;10.20;99.90
11242;DHT22;5678;52.370;9.006;2023-05-29T00:53:25;10.40;99.90
11242;DHT22;5678;52.370;9.006;2023-05-29T00:55:54;10.10;99.90
11242;DHT22;5678;52.370;9.006;2023-05-29T00:58:22;10.10;99.90
11242;DHT22;5678;52.370;9.006;2023-05-29T01:00:51;10.10;99.90
11242;DHT22;5678;52.370;9.006;2023-05-29T01:03:20;10.20;99.90
11242;DHT22;5678;52.370;9.006;2023-05-29T01:05:50;10.20;99.90
11242;DHT22;5678;52.370;9.006;2023-05-29T01:08:19;10.20;99.90
11242;DHT22;5678;52.370;9.006;2023-05-29T01:10:47;10.20;99.90
11242;DHT22;5678;52.370;9.006;2023-05-29T01:13:19;10.20;99.90
11242;DHT22;5678;52.370;9.006;2023-05-29T01:15:54;10.20;99.90
11242;DHT22;5678;52.370;9.006;2023-05-29T01:18:31;10.10;99.90
11242;DHT22;5678;52.370;9.006;2023-05-29T01:21:06;10.10;99.90
11242;DHT22;5678;52.370;9.006;2023-05-29T01:23:53;10.00;99.90
11242;DHT22;5678;52.370;9.006;2023-05-29T01:26:46;10.00;99.90
11242;DHT22;5678;52.370;9.006;2023-05-29T01:29:18;9.90;99.90
11242;DHT22;5678;52.370;9.006;2023-05-29T01:31:47;9.90;99.90
11242;DHT22;5678;52.370;9.006;2023-05-29T01:34:16;9.80;99.90
11242;DHT22;5678;52.370;9.006;2023-05-29T01:36:44;9.80;99.90
11242;DHT22;5678;52.370;9.006;2023-05-29T01:39:13;9.80;99.90
11242;DHT22;5678;52.370;9.006;2023-05-29T01:41:42;9.70;99.90
11242;DHT22;5678;52.370;9.006;2023-05-29T01:44:13;9.70;99.90
11242;DHT22;5678;52.370;9.006;2023-05-29T01:46:42;9.70;99.90
11242;DHT22;5678;52.370;9.006;2023-05-29T01:49:11;9.70;99.90
11242;DHT22;5678;52.370;9.006;2023-05-29T01:51:40;9.70;99.90
11242;DHT22;5678;52.370;9.006;2023-05-29T01:54:08;9.60;99.90
11242;DHT22;5678;52.370;9.006;2023-05-29T01:56:36;9.40;99.90
11242;DHT22;5678;52.370;9.006;2023-05-29T01:59:04;9.60;99.90
11242;DHT22;5678;52.370;9.006;2023-05-29T02:01:34;9.60;99.90
11242;DHT22;5678;52.370;9.006;2023-05-29T02:04:02;9.50;99.90
11242;DHT22;5678;52.370;9.006;2023-05-29T02:06:30;9.40;99.90
11242;DHT22;5678;52.370;9.006;2023-05-29T02:08:59;9.40;99.90
11242;DHT22;5678;52.370;9.006;2023-05-29T02:11:27;9.40;99.90
11242;DHT22;5678;52.370;9.006;2023-05-29T02:13:55;9.40;99.90
11242;DHT22;5678;52.370;9.006;2023-05-29T02:16:23;9.30;99.90
11242;DHT22;5678;52.370;9.006;2023-05-29T02:18:56;9.30;99.90
11242;DHT22;5678;52.370;9.006;2023-05-29T02:21:24;9.30;99.90
11242;DHT22;5678;52.370;9.006;2023-05-29T02:23:51;9.20;99.90
11242;DHT22;5678;52.370;9.006;2023-05-29T02:26:19;9.20;99.90
11242;DHT22;5678;52.370;9.006;2023-05-29T02:28:47;9.20;99.90
11242;DHT22;5678;52.370;9.006;2023-05-29T02:31:15;9.20;99.90
11242;DHT22;5678;52.370;9.006;2023-05-29T02:33:43;9.10;99.90
11242;DHT22;5678;52.370;9.006;2023-05-29T02:36:12;9.10;99.90
11242;DHT22;5678;52.370;9.006;2023-05-29T02:38:40;9.10;99.90
11242;DHT22;5678;52.370;9.006;2023-05-29T02:41:08;9.10;99.90
11242;DHT22;5678;52.370;9.006;2023-05-29T02:43:36;9.10;99.90
11242;DHT22;5678;52.370;9.006;2023-05-29T02:46:04;9.00;99.90
11242;DHT22;5678;52.370;9.006;2023-05-29T02:48:32;9.00;99.90
11242;DHT22;5678;52.370;9.006;2023-05-29T02:51:00;9.00;99.90
11242;DHT22;5678;52.370;9.006;2023-05-29T02:53:29;8.90;99.90
11242;DHT22;5678;52.370;9.006;2023-05-29T02:55:58;8.90;99.90
11242;DHT22;5678;52.370;9.006;2023-05-29T02:58:26;8.90;99.90
11242;DHT22;5678;52.370;9.006;2023-05-29T03:00:54;8.90;99.90
11242;DHT22;5678;52.370;9.006;2023-05-29T03:03:22;8.80;99.90
11242;DHT22;5678;52.370;9.006;2023-05-29T03:05:50;8.80;99.90
11242;DHT22;5678;52.370;9.006;2023-05-29T03:08:18;8.80;99.90
11242;DHT22;5678;52.370;9.006;2023-05-29T03:10:47;8.80;99.90
11242;DHT22;5678;52.370;9.006;2023-05-29T03:13:15;8.70;99.90
11242;DHT22;5678;52.370;9.006;2023-05-29T03:15:45;8.70;99.90
11242;DHT22;5678;52.370;9.006;2023-05-29T03:18:14;8.70;99.90
11242;DHT22;5678;52.370;9.006;2023-05-29T03:20:42;8.60;99.90
11242;DHT22;5678;52.370;9.006;2023-05-29T03:23:10;8.80;99.90
11242;DHT22;5678;52.370;9.006;2023-05-29T03:25:38;8.60;99.90
11242;DHT22;5678;52.370;9.006;2023-05-29T03:28:08;8.60;99.90
11242;DHT22;5678;52.370;9.006;2023-05-29T03:30:35;8.60;99.90
11242;DHT22;5678;52.370;9.006;2023-05-29T03:33:03;8.50;99.90
11242;DHT22;5678;52.370;9.006;2023-05-29T03:35:32;8.40;99.90
11242;DHT22;5678;52.370;9.006;2023-05-29T03:38:00;8.40;99.90
11242;DHT22;5678;52.370;9.006;2023-05-29T03:40:28;8.60;99.90
11242;DHT22;5678;52.370;9.006;2023-05-29T03:42:56;8.60;99.90
11242;DHT22;5678;52.370;9.006;2023-05-29T03:45:25;8.60;99.90
11242;DHT22;5678;52.370;9.006;2023-05-29T03:47:53;8.60;99.90
11242;DHT22;5678;52.370;9.006;2023-05-29T03:50:21;8.80;99.90
11242;DHT22;5678;52.370;9.006;2023-05-29T03:52:49;8.60;99.90
11242;DHT22;5678;52.370;9.006;2023-05-29T03:55:17;8.70;99.90
11242;DHT22;5678;52.370;9.006;2023-05-29T03:57:45;8.70;99.90
11242;DHT22;5678;52.370;9.006;2023-05-29T04:00:13;8.70;99.90
11242;DHT22;5678;52.370;9.006;2023-05-29T04:02:43;8.80;99.90
11242;DHT22;5678;52.370;9.006;2023-05-29T04:05:11;8.80;99.90
11242;DHT22;5678;52.370;9.006;2023-05-29T04:07:41;8.70;99.90
11242;DHT22;5678;52.370;9.006;2023-05-29T04:10:10;8.80;99.90
11242;DHT22;5678;52.370;9.006;2023-05-29T04:12:38;8.80;99.90
11242;DHT22;5678;52.370;9.006;2023-05-29T04:15:07;8.80;99.90
11242;DHT22;5678;52.370;9.006;2023-05-29T04:17:35;8.80;99.90
11242;DHT22;5678;52.370;9.006;2023-05-29T04:20:05;8.80;99.90
11242;DHT22;5678;52.370;9.006;2023-05-29T04:22:35;8.90;99.90
11242;DHT22;5678;52.370;9.006;2023-05-29T04:25:04;8.90;99.90
11242;DHT22;5678;52.370;9.006;2023-05-29T04:27:32;9.00;99.90
11242;DHT22;5678;52.370;9.006;2023-05-29T04:30:04;9.10;99.90
11242;DHT22;5678;52.370;9.006;2023-05-29T04:32:33;9.10;99.90
11242;DHT22;5678;52.370;9.006;2023-05-29T04:35:01;9.10;99.90
11242;DHT22;5678;52.370;9.006;2023-05-29T04:37:31;9.20;99.90
11242;DHT22;5678;52.370;9.006;2023-05-29T04:40:05;9.40;99.90
11242;DHT22;5678;52.370;9.006;2023-05-29T04:42:35;9.50;99.90
11242;DHT22;5678;52.370;9.006;2023-05-29T04:45:04;9.60;99.90
11242;DHT22;5678;52.370;9.006;2023-05-29T04:47:32;9.70;99.90
11242;DHT22;5678;52.370;9.006;2023-05-29T04:50:00;10.10;99.90
11242;DHT22;5678;52.370;9.006;2023-05-29T04:52:29;10.00;99.90
11242;DHT22;5678;52.370;9.006;2023-05-29T04:54:59;10.30;99.90
11242;DHT22;5678;52.370;9.006;2023-05-29T04:57:26;10.50;99.90
11242;DHT22;5678;52.370;9.006;2023-05-29T04:59:54;10.80;99.90
11242;DHT22;5678;52.370;9.006;2023-05-29T05:02:22;11.10;99.90
11242;DHT22;5678;52.370;9.006;2023-05-29T05:04:50;11.40;99.90
11242;DHT22;5678;52.370;9.006;2023-05-29T05:07:18;11.50;99.90
11242;DHT22;5678;52.370;9.006;2023-05-29T05:09:47;11.70;99.90
11242;DHT22;5678;52.370;9.006;2023-05-29T05:12:15;11.80;99.90
11242;DHT22;5678;52.370;9.006;2023-05-29T05:14:43;11.70;99.90
11242;DHT22;5678;52.370;9.006;2023-05-29T05:17:11;11.70;99.90
11242;DHT22;5678;52.370;9.006;2023-05-29T05:19:39;11.50;99.90
11242;DHT22;5678;52.370;9.006;2023-05-29T05:22:07;11.30;99.90
11242;DHT22;5678;52.370;9.006;2023-05-29T05:24:35;11.30;99.90
11242;DHT22;5678;52.370;9.006;2023-05-29T05:27:05;11.20;99.90
11242;DHT22;5678;52.370;9.006;2023-05-29T05:29:33;11.30;99.90
11242;DHT22;5678;52.370;9.006;2023-05-29T05:32:01;11.50;99.90
11242;DHT22;5678;52.370;9.006;2023-05-29T05:34:29;11.80;99.90
11242;DHT22;5678;52.370;9.006;2023-05-29T05:36:56;12.10;99.90
11242;DHT22;5678;52.370;9.006;2023-05-29T05:39:24;12.20;99.90
11242;DHT22;5678;52.370;9.006;2023-05-29T05:41:53;12.30;99.90
11242;DHT22;5678;52.370;9.006;2023-05-29T05:44:22;12.50;99.90
11242;DHT22;5678;52.370;9.006;2023-05-29T05:46:50;12.40;99.90
11242;DHT22;5678;52.370;9.006;2023-05-29T05:49:19;12.40;99.90
11242;DHT22;5678;52.370;9.006;2023-05-29T05:51:47;12.50;99.90
11242;DHT22;5678;52.370;9.006;2023-05-29T05:54:16;12.90;99.90
11242;DHT22;5678;52.370;9.006;2023-05-29T05:56:44;13.20;99.90
11242;DHT22;5678;52.370;9.006;2023-05-29T05:59:12;13.40;99.90
11242;DHT22;5678;52.370;9.006;2023-05-29T06:01:41;13.50;99.90
11242;DHT22;5678;52.370;9.006;2023-05-29T06:04:09;13.80;99.90
11242;DHT22;5678;52.370;9.006;2023-05-29T06:06:37;13.80;99.90
11242;DHT22;5678;52.370;9.006;2023-05-29T06:09:06;13.70;99.90
11242;DHT22;5678;52.370;9.006;2023-05-29T06:11:34;13.40;99.90
11242;DHT22;5678;52.370;9.006;2023-05-29T06:14:02;13.20;99.90
11242;DHT22;5678;52.370;9.006;2023-05-29T06:16:30;13.10;99.90
11242;DHT22;5678;52.370;9.006;2023-05-29T06:18:59;13.20;99.90
11242;DHT22;5678;52.370;9.006;2023-05-29T06:21:27;13.20;99.90
11242;DHT22;5678;52.370;9.006;2023-05-29T06:23:55;13.30;99.90
11242;DHT22;5678;52.370;9.006;2023-05-29T06:26:23;13.20;99.90
11242;DHT22;5678;52.370;9.006;2023-05-29T06:28:53;13.20;99.90
11242;DHT22;5678;52.370;9.006;2023-05-29T06:31:21;13.60;99.90
11242;DHT22;5678;52.370;9.006;2023-05-29T06:33:49;13.70;99.90
11242;DHT22;5678;52.370;9.006;2023-05-29T06:36:18;13.50;99.90
11242;DHT22;5678;52.370;9.006;2023-05-29T06:38:47;13.80;99.90
11242;DHT22;5678;52.370;9.006;2023-05-29T06:41:15;13.70;99.90
11242;DHT22;5678;52.370;9.006;2023-05-29T06:43:44;13.60;99.90
11242;DHT22;5678;52.370;9.006;2023-05-29T06:46:12;13.80;99.90
11242;DHT22;5678;52.370;9.006;2023-05-29T06:48:40;14.00;99.90
11242;DHT22;5678;52.370;9.006;2023-05-29T06:51:08;14.10;99.90
11242;DHT22;5678;52.370;9.006;2023-05-29T06:53:39;14.30;99.90
11242;DHT22;5678;52.370;9.006;2023-05-29T06:56:07;14.70;99.90
11242;DHT22;5678;52.370;9.006;2023-05-29T06:58:35;14.70;99.90
11242;DHT22;5678;52.370;9.006;2023-05-29T07:01:04;14.50;99.90
11242;DHT22;5678;52.370;9.006;2023-05-29T07:03:34;14.80;99.90
11242;DHT22;5678;52.370;9.006;2023-05-29T07:06:04;14.90;99.90
11242;DHT22;5678;52.370;9.006;2023-05-29T07:08:32;15.10;99.90
11242;DHT22;5678;52.370;9.006;2023-05-29T07:11:02;15.20;99.90
11242;DHT22;5678;52.370;9.006;2023-05-29T07:13:30;15.30;99.90
11242;DHT22;5678;52.370;9.006;2023-05-29T07:15:58;15.50;99.90
11242;DHT22;5678;52.370;9.006;2023-05-29T07:18:42;15.50;99.90
11242;DHT22;5678;52.370;9.006;2023-05-29T07:21:10;16.20;99.90
11242;DHT22;5678;52.370;9.006;2023-05-29T07:23:39;16.10;99.90
11242;DHT22;5678;52.370;9.006;2023-05-29T07:26:08;16.30;99.90
11242;DHT22;5678;52.370;9.006;2023-05-29T07:28:36;16.90;99.90
11242;DHT22;5678;52.370;9.006;2023-05-29T07:31:04;16.70;99.90
11242;DHT22;5678;52.370;9.006;2023-05-29T07:33:32;16.90;99.90
11242;DHT22;5678;52.370;9.006;2023-05-29T07:36:00;17.20;99.90
11242;DHT22;5678;52.370;9.006;2023-05-29T07:38:28;17.40;99.90
11242;DHT22;5678;52.370;9.006;2023-05-29T07:40:56;17.50;99.90
11242;DHT22;5678;52.370;9.006;2023-05-29T07:43:26;17.50;99.90
11242;DHT22;5678;52.370;9.006;2023-05-29T07:45:54;17.00;99.90
11242;DHT22;5678;52.370;9.006;2023-05-29T07:48:22;17.00;99.90
11242;DHT22;5678;52.370;9.006;2023-05-29T07:50:50;17.00;99.90
11242;DHT22;5678;52.370;9.006;2023-05-29T07:53:19;16.90;99.90
11242;DHT22;5678;52.370;9.006;2023-05-29T07:55:47;17.10;99.90
11242;DHT22;5678;52.370;9.006;2023-05-29T07:58:15;17.20;99.90
11242;DHT22;5678;52.370;9.006;2023-05-29T08:00:45;17.80;99.90
11242;DHT22;5678;52.370;9.006;2023-05-29T08:03:13;17.00;99.90
11242;DHT22;5678;52.370;9.006;2023-05-29T08:05:41;17.10;99.90
11242;DHT22;5678;52.370;9.006;2023-05-29T08:08:09;17.10;99.90
11242;DHT22;5678;52.370;9.006;2023-05-29T08:10:38;17.40;99.90
11242;DHT22;5678;52.370;9.006;2023-05-29T08:13:06;17.80;99.90
11242;DHT22;5678;52.370;9.006;2023-05-29T08:15:34;18.10;99.90
11242;DHT22;5678;52.370;9.006;2023-05-29T08:18:05;17.90;99.90
11242;DHT22;5678;52.370;9.006;2023-05-29T08:20:33;17.60;99.90
11242;DHT22;5678;52.370;9.006;2023-05-29T08:23:02;17.60;99.90
11242;DHT22;5678;52.370;9.006;2023-05-29T08:25:30;17.40;99.90
11242;DHT22;5678;52.370;9.006;2023-05-29T08:27:57;17.30;99.90
11242;DHT22;5678;52.370;9.006;2023-05-29T08:30:26;17.50;99.90
11242;DHT22;5678;52.370;9.006;2023-05-29T08:32:54;17.70;99.90
11242;DHT22;5678;52.370;9.006;2023-05-29T08:35:23;17.70;99.90
11242;DHT22;5678;52.370;9.006;2023-05-29T08:37:51;17.80;99.90
11242;DHT22;5678;52.370;9.006;2023-05-29T08:40:19;17.70;99.90
11242;DHT22;5678;52.370;9.006;2023-05-29T08:42:51;17.60;99.90
11242;DHT22;5678;52.370;9.006;2023-05-29T08:45:22;17.60;99.90
11242;DHT22;5678;52.370;9.006;2023-05-29T08:47:53;17.60;99.90
11242;DHT22;5678;52.370;9.006;2023-05-29T08:50:22;18.20;99.90
11242;DHT22;5678;52.370;9.006;2023-05-29T08:52:51;17.80;99.90
11242;DHT22;5678;52.370;9.006;2023-05-29T08:55:19;17.90;99.90
11242;DHT22;5678;52.370;9.006;2023-05-29T08:57:47;17.80;99.90
11242;DHT22;5678;52.370;9.006;2023-05-29T09:00:16;18.00;99.90
11242;DHT22;5678;52.370;9.006;2023-05-29T09:02:45;18.30;99.90
11242;DHT22;5678;52.370;9.006;2023-05-29T09:05:13;18.80;99.90
11242;DHT22;5678;52.370;9.006;2023-05-29T09:07:42;19.10;99.90
11242;DHT22;5678;52.370;9.006;2023-05-29T09:10:10;19.30;99.90
11242;DHT22;5678;52.370;9.006;2023-05-29T09:12:39;19.20;99.90
11242;DHT22;5678;52.370;9.006;2023-05-29T09:15:17;19.30;99.90
11242;DHT22;5678;52.370;9.006;2023-05-29T09:17:50;19.40;99.90
11242;DHT22;5678;52.370;9.006;2023-05-29T09:20:20;19.50;99.90
11242;DHT22;5678;52.370;9.006;2023-05-29T09:22:55;19.40;99.90
11242;DHT22;5678;52.370;9.006;2023-05-29T09:25:24;19.60;99.90
11242;DHT22;5678;52.370;9.006;2023-05-29T09:27:55;19.70;99.90
11242;DHT22;5678;52.370;9.006;2023-05-29T09:30:43;19.90;99.90
11242;DHT22;5678;52.370;9.006;2023-05-29T09:33:12;20.00;99.90
11242;DHT22;5678;52.370;9.006;2023-05-29T09:35:41;19.70;99.90
11242;DHT22;5678;52.370;9.006;2023-05-29T09:38:11;19.40;99.90
11242;DHT22;5678;52.370;9.006;2023-05-29T09:41:03;19.60;99.90
11242;DHT22;5678;52.370;9.006;2023-05-29T09:43:32;19.60;99.90
11242;DHT22;5678;52.370;9.006;2023-05-29T09:46:01;19.80;99.90
11242;DHT22;5678;52.370;9.006;2023-05-29T09:48:29;19.80;99.90
11242;DHT22;5678;52.370;9.006;2023-05-29T09:50:58;19.70;99.90
11242;DHT22;5678;52.370;9.006;2023-05-29T09:53:30;19.60;99.90
11242;DHT22;5678;52.370;9.006;2023-05-29T09:55:58;19.50;99.90
11242;DHT22;5678;52.370;9.006;2023-05-29T09:58:27;19.60;99.90
11242;DHT22;5678;52.370;9.006;2023-05-29T10:00:56;19.40;99.90
11242;DHT22;5678;52.370;9.006;2023-05-29T10:03:24;19.50;99.90
11242;DHT22;5678;52.370;9.006;2023-05-29T10:05:55;19.40;99.90
11242;DHT22;5678;52.370;9.006;2023-05-29T10:08:25;19.80;99.90
11242;DHT22;5678;52.370;9.006;2023-05-29T10:10:59;20.30;99.90
11242;DHT22;5678;52.370;9.006;2023-05-29T10:13:34;20.10;99.90
11242;DHT22;5678;52.370;9.006;2023-05-29T10:16:04;20.10;99.90
11242;DHT22;5678;52.370;9.006;2023-05-29T10:18:37;19.80;99.90
11242;DHT22;5678;52.370;9.006;2023-05-29T10:21:07;20.00;99.90
11242;DHT22;5678;52.370;9.006;2023-05-29T10:23:37;20.10;99.90
11242;DHT22;5678;52.370;9.006;2023-05-29T10:26:11;20.10;99.90
11242;DHT22;5678;52.370;9.006;2023-05-29T10:28:44;19.90;99.90
11242;DHT22;5678;52.370;9.006;2023-05-29T10:31:18;20.00;99.90
11242;DHT22;5678;52.370;9.006;2023-05-29T10:33:54;20.00;99.90
11242;DHT22;5678;52.370;9.006;2023-05-29T10:36:27;20.00;99.90
11242;DHT22;5678;52.370;9.006;2023-05-29T10:38:57;20.00;99.90
11242;DHT22;5678;52.370;9.006;2023-05-29T10:41:32;20.00;99.90
11242;DHT22;5678;52.370;9.006;2023-05-29T10:44:01;20.30;99.90
11242;DHT22;5678;52.370;9.006;2023-05-29T10:47:04;20.50;99.90
11242;DHT22;5678;52.370;9.006;2023-05-29T10:49:32;20.40;99.90
11242;DHT22;5678;52.370;9.006;2023-05-29T10:52:03;20.20;99.90
11242;DHT22;5678;52.370;9.006;2023-05-29T10:54:50;20.10;99.90
11242;DHT22;5678;52.370;9.006;2023-05-29T10:57:22;20.50;99.90
11242;DHT22;5678;52.370;9.006;2023-05-29T11:00:03;20.40;99.90
11242;DHT22;5678;52.370;9.006;2023-05-29T11:02:37;20.20;99.90
11242;DHT22;5678;52.370;9.006;2023-05-29T11:05:22;20.30;99.90
11242;DHT22;5678;52.370;9.006;2023-05-29T11:07:55;20.30;99.90
11242;DHT22;5678;52.370;9.006;2023-05-29T11:10:42;20.40;99.90
11242;DHT22;5678;52.370;9.006;2023-05-29T11:13:23;20.50;99.90
11242;DHT22;5678;52.370;9.006;2023-05-29T11:16:19;20.60;99.90
11242;DHT22;5678;52.370;9.006;2023-05-29T11:18:47;20.60;99.90
11242;DHT22;5678;52.370;9.006;2023-05-29T11:21:29;20.70;99.90
11242;DHT22;5678;52.370;9.006;2023-05-29T11:23:59;20.70;99.90
11242;DHT22;5678;52.370;9.006;2023-05-29T11:26:45;20.50;99.90
11242;DHT22;5678;52.370;9.006;2023-05-29T11:29:15;20.60;99.90
11242;DHT22;5678;52.370;9.006;2023-05-29T11:31:43;20.60;99.90
11242;DHT22;5678;52.370;9.006;2023-05-29T11:34:18;20.90;99.90
11242;DHT22;5678;52.370;9.006;2023-05-29T11:36:50;21.20;99.90
11242;DHT22;5678;52.370;9.006;2023-05-29T11:39:18;21.40;99.90
11242;DHT22;5678;52.370;9.006;2023-05-29T11:41:50;21.70;99.90
11242;DHT22;5678;52.370;9.006;2023-05-29T11:44:20;21.30;99.90
11242;DHT22;5678;52.370;9.006;2023-05-29T11:46:59;20.90;99.90
11242;DHT22;5678;52.370;9.006;2023-05-29T11:49:29;21.20;99.90
11242;DHT22;5678;52.370;9.006;2023-05-29T11:52:09;21.20;99.90
11242;DHT22;5678;52.370;9.006;2023-05-29T11:54:43;21.40;99.90
11242;DHT22;5678;52.370;9.006;2023-05-29T11:57:17;21.40;99.90
11242;DHT22;5678;52.370;9.006;2023-05-29T11:59:47;21.40;99.90
11242;DHT22;5678;52.370;9.006;2023-05-29T12:02:18;21.20;99.90
11242;DHT22;5678;52.370;9.006;2023-05-29T12:04:59;21.30;99.90
11242;DHT22;5678;52.370;9.006;2023-05-29T12:07:28;20.90;99.90
11242;DHT22;5678;52.370;9.006;2023-05-29T12:09:56;20.80;99.90
11242;DHT22;5678;52.370;9.006;2023-05-29T12:12:25;20.70;99.90
11242;DHT22;5678;52.370;9.006;2023-05-29T12:14:55;20.60;99.90
11242;DHT22;5678;52.370;9.006;2023-05-29T12:17:23;20.80;99.90
11242;DHT22;5678;52.370;9.006;2023-05-29T12:19:52;20.80;99.90
11242;DHT22;5678;52.370;9.006;2023-05-29T12:22:32;21.00;99.90
11242;DHT22;5678;52.370;9.006;2023-05-29T12:25:05;20.90;99.90
11242;DHT22;5678;52.370;9.006;2023-05-29T12:27:33;21.20;99.90
11242;DHT22;5678;52.370;9.006;2023-05-29T12:30:07;21.40;99.90
11242;DHT22;5678;52.370;9.006;2023-05-29T12:32:37;21.40;99.90
11242;DHT22;5678;52.370;9.006;2023-05-29T12:35:13;21.20;99.90
11242;DHT22;5678;52.370;9.006;2023-05-29T12:37:45;21.20;99.90
11242;DHT22;5678;52.370;9.006;2023-05-29T12:40:15;21.30;99.90
11242;DHT22;5678;52.370;9.006;2023-05-29T12:42:43;21.50;99.90
11242;DHT22;5678;52.370;9.006;2023-05-29T12:45:13;21.20;99.90
11242;DHT22;5678;52.370;9.006;2023-05-29T12:47:51;21.10;99.90
11242;DHT22;5678;52.370;9.006;2023-05-29T12:50:20;20.90;99.90
11242;DHT22;5678;52.370;9.006;2023-05-29T12:52:59;20.90;99.90
11242;DHT22;5678;52.370;9.006;2023-05-29T12:55:28;21.00;99.90
11242;DHT22;5678;52.370;9.006;2023-05-29T12:57:57;21.10;99.90
11242;DHT22;5678;52.370;9.006;2023-05-29T13:00:26;21.20;99.90
11242;DHT22;5678;52.370;9.006;2023-05-29T13:02:54;21.10;99.90
11242;DHT22;5678;52.370;9.006;2023-05-29T13:05:22;20.80;99.90
11242;DHT22;5678;52.370;9.006;2023-05-29T13:07:51;20.80;99.90
11242;DHT22;5678;52.370;9.006;2023-05-29T13:10:19;20.70;99.90
11242;DHT22;5678;52.370;9.006;2023-05-29T13:12:48;21.10;99.90
11242;DHT22;5678;52.370;9.006;2023-05-29T13:15:21;21.40;99.90
11242;DHT22;5678;52.370;9.006;2023-05-29T13:17:51;21.40;99.90
11242;DHT22;5678;52.370;9.006;2023-05-29T13:20:20;21.40;99.90
11242;DHT22;5678;52.370;9.006;2023-05-29T13:22:48;21.40;99.90
11242;DHT22;5678;52.370;9.006;2023-05-29T13:25:17;21.40;99.90
11242;DHT22;5678;52.370;9.006;2023-05-29T13:27:47;21.60;99.90
11242;DHT22;5678;52.370;9.006;2023-05-29T13:30:16;21.50;99.90
11242;DHT22;5678;52.370;9.006;2023-05-29T13:32:44;21.30;99.90
11242;DHT22;5678;52.370;9.006;2023-05-29T13:35:14;21.40;99.90
11242;DHT22;5678;52.370;9.006;2023-05-29T13:37:42;21.70;99.90
11242;DHT22;5678;52.370;9.006;2023-05-29T13:40:11;21.80;99.90
11242;DHT22;5678;52.370;9.006;2023-05-29T13:42:41;21.60;99.30
11242;DHT22;5678;52.370;9.006;2023-05-29T13:45:09;21.20;99.00
11242;DHT22;5678;52.370;9.006;2023-05-29T13:47:38;21.00;99.90
11242;DHT22;5678;52.370;9.006;2023-05-29T13:50:07;21.20;99.90
11242;DHT22;5678;52.370;9.006;2023-05-29T13:52:37;21.30;99.90
11242;DHT22;5678;52.370;9.006;2023-05-29T13:55:05;21.20;99.90
11242;DHT22;5678;52.370;9.006;2023-05-29T13:57:35;21.20;98.70
11242;DHT22;5678;52.370;9.006;2023-05-29T14:00:04;21.10;98.40
11242;DHT22;5678;52.370;9.006;2023-05-29T14:02:33;20.80;98.50
11242;DHT22;5678;52.370;9.006;2023-05-29T14:05:01;20.70;99.90
11242;DHT22;5678;52.370;9.006;2023-05-29T14:07:29;20.90;99.90
11242;DHT22;5678;52.370;9.006;2023-05-29T14:09:58;21.00;98.80
11242;DHT22;5678;52.370;9.006;2023-05-29T14:12:26;21.20;98.30
11242;DHT22;5678;52.370;9.006;2023-05-29T14:14:54;21.00;97.70
11242;DHT22;5678;52.370;9.006;2023-05-29T14:17:22;21.10;97.70
11242;DHT22;5678;52.370;9.006;2023-05-29T14:19:50;21.20;99.20
11242;DHT22;5678;52.370;9.006;2023-05-29T14:22:18;21.40;96.40
11242;DHT22;5678;52.370;9.006;2023-05-29T14:24:46;21.50;98.00
11242;DHT22;5678;52.370;9.006;2023-05-29T14:27:15;21.30;97.90
11242;DHT22;5678;52.370;9.006;2023-05-29T14:29:43;21.40;99.10
11242;DHT22;5678;52.370;9.006;2023-05-29T14:32:12;21.40;99.90
11242;DHT22;5678;52.370;9.006;2023-05-29T14:34:40;21.40;98.60
11242;DHT22;5678;52.370;9.006;2023-05-29T14:37:08;21.30;98.90
11242;DHT22;5678;52.370;9.006;2023-05-29T14:39:37;21.20;99.40
11242;DHT22;5678;52.370;9.006;2023-05-29T14:42:05;21.20;99.30
11242;DHT22;5678;52.370;9.006;2023-05-29T14:44:35;21.10;99.90
11242;DHT22;5678;52.370;9.006;2023-05-29T14:47:04;21.20;99.90
11242;DHT22;5678;52.370;9.006;2023-05-29T14:49:32;21.20;99.90
11242;DHT22;5678;52.370;9.006;2023-05-29T14:52:00;21.10;99.90
11242;DHT22;5678;52.370;9.006;2023-05-29T14:54:29;21.10;99.50
11242;DHT22;5678;52.370;9.006;2023-05-29T14:56:57;21.20;99.90
11242;DHT22;5678;52.370;9.006;2023-05-29T14:59:25;21.10;99.90
11242;DHT22;5678;52.370;9.006;2023-05-29T15:01:54;21.00;99.90
11242;DHT22;5678;52.370;9.006;2023-05-29T15:04:25;21.00;99.90
11242;DHT22;5678;52.370;9.006;2023-05-29T15:06:53;20.70;99.90
11242;DHT22;5678;52.370;9.006;2023-05-29T15:09:32;20.60;99.90
11242;DHT22;5678;52.370;9.006;2023-05-29T15:12:00;20.60;99.90
11242;DHT22;5678;52.370;9.006;2023-05-29T15:14:29;20.40;99.90
11242;DHT22;5678;52.370;9.006;2023-05-29T15:16:58;20.40;99.90
11242;DHT22;5678;52.370;9.006;2023-05-29T15:19:27;20.40;99.90
11242;DHT22;5678;52.370;9.006;2023-05-29T15:21:56;20.50;99.90
11242;DHT22;5678;52.370;9.006;2023-05-29T15:24:24;20.50;99.90
11242;DHT22;5678;52.370;9.006;2023-05-29T15:26:52;20.70;99.90
11242;DHT22;5678;52.370;9.006;2023-05-29T15:29:19;20.70;99.90
11242;DHT22;5678;52.370;9.006;2023-05-29T15:31:48;20.80;99.90
11242;DHT22;5678;52.370;9.006;2023-05-29T15:34:17;20.60;99.90
11242;DHT22;5678;52.370;9.006;2023-05-29T15:36:45;20.50;99.90
11242;DHT22;5678;52.370;9.006;2023-05-29T15:39:13;20.50;99.90
11242;DHT22;5678;52.370;9.006;2023-05-29T15:41:41;20.40;99.90
11242;DHT22;5678;52.370;9.006;2023-05-29T15:44:09;20.30;99.90
11242;DHT22;5678;52.370;9.006;2023-05-29T15:46:37;20.20;99.90
11242;DHT22;5678;52.370;9.006;2023-05-29T15:49:05;20.30;99.90
11242;DHT22;5678;52.370;9.006;2023-05-29T15:51:34;20.20;99.90
11242;DHT22;5678;52.370;9.006;2023-05-29T15:54:07;20.30;99.90
11242;DHT22;5678;52.370;9.006;2023-05-29T15:56:35;20.40;99.90
11242;DHT22;5678;52.370;9.006;2023-05-29T15:59:03;20.50;99.90
11242;DHT22;5678;52.370;9.006;2023-05-29T16:01:32;20.50;99.90
11242;DHT22;5678;52.370;9.006;2023-05-29T16:04:00;20.30;99.90
11242;DHT22;5678;52.370;9.006;2023-05-29T16:06:29;20.00;99.90